createdAt,value
2023-05-15T00:03:02.400Z,61.10
2023-05-15T00:06:06.062Z,61.20
2023-05-15T00:09:10.649Z,61.50
2023-05-15T00:12:13.735Z,61.60
2023-05-15T00:15:16.769Z,61.70
2023-05-15T00:18:19.775Z,61.70
2023-05-15T00:21:22.816Z,61.80
2023-05-15T00:24:27.190Z,61.90
2023-05-15T00:27:30.199Z,62.20
2023-05-15T00:30:33.406Z,62.20
2023-05-15T00:33:36.481Z,62.30
2023-05-15T00:36:39.898Z,62.40
2023-05-15T00:39:44.436Z,62.30
2023-05-15T00:42:48.206Z,62.10
2023-05-15T00:45:52.740Z,62.00
2023-05-15T00:48:58.595Z,62.00
2023-05-15T00:52:03.840Z,61.90
2023-05-15T00:55:10.208Z,62.00
2023-05-15T00:58:15.582Z,62.10
2023-05-15T01:01:19.455Z,62.10
2023-05-15T01:04:22.827Z,62.00
2023-05-15T01:07:25.932Z,62.20
2023-05-15T01:10:30.578Z,62.20
2023-05-15T01:13:33.677Z,62.30
2023-05-15T01:16:38.785Z,62.30
2023-05-15T01:19:43.023Z,62.40
2023-05-15T01:22:52.917Z,62.50
2023-05-15T01:26:50.308Z,62.60
2023-05-15T01:30:06.477Z,62.70
2023-05-15T01:33:17.408Z,62.80
2023-05-15T01:36:27.957Z,62.90
2023-05-15T01:39:34.522Z,63.10
2023-05-15T01:42:42.681Z,63.10
2023-05-15T01:45:47.134Z,63.10
2023-05-15T01:48:52.002Z,63.40
2023-05-15T01:51:59.366Z,63.50
2023-05-15T01:55:04.076Z,63.60
2023-05-15T01:58:07.819Z,63.70
2023-05-15T02:01:12.716Z,63.90
2023-05-15T02:04:16.874Z,63.90
2023-05-15T02:07:20.306Z,64.00
2023-05-15T02:10:24.425Z,64.00
2023-05-15T02:13:28.371Z,64.00
2023-05-15T02:16:32.833Z,64.10
2023-05-15T02:19:36.041Z,64.20
2023-05-15T02:22:39.106Z,64.20
2023-05-15T02:25:51.252Z,64.30
2023-05-15T02:29:05.090Z,64.30
2023-05-15T02:32:16.668Z,64.50
2023-05-15T02:35:28.201Z,64.60
2023-05-15T02:38:34.985Z,64.70
2023-05-15T02:41:39.069Z,64.90
2023-05-15T02:44:43.211Z,65.00
2023-05-15T02:47:50.440Z,65.10
2023-05-15T02:50:53.960Z,65.10
2023-05-15T02:53:57.498Z,65.20
2023-05-15T02:57:00.689Z,65.30
2023-05-15T03:00:06.380Z,65.30
2023-05-15T03:03:10.969Z,65.40
2023-05-15T03:06:14.078Z,65.60
2023-05-15T03:09:17.940Z,65.70
2023-05-15T03:12:20.998Z,65.70
2023-05-15T03:15:24.220Z,65.90
2023-05-15T03:18:28.824Z,65.90
2023-05-15T03:21:32.118Z,66.00
2023-05-15T03:24:35.189Z,66.10
2023-05-15T03:27:38.151Z,66.40
2023-05-15T03:30:41.353Z,66.50
2023-05-15T03:33:49.821Z,66.50
2023-05-15T03:36:52.872Z,66.70
2023-05-15T03:39:56.207Z,66.80
2023-05-15T03:42:59.205Z,67.00
2023-05-15T03:46:02.569Z,67.10
2023-05-15T03:49:07.165Z,67.10
2023-05-15T03:52:11.044Z,67.10
2023-05-15T03:55:14.219Z,67.10
2023-05-15T03:58:17.578Z,67.00
2023-05-15T04:01:20.751Z,67.00
2023-05-15T04:04:25.083Z,67.10
2023-05-15T04:07:28.529Z,67.10
2023-05-15T04:10:32.433Z,67.10
2023-05-15T04:13:35.445Z,67.10
2023-05-15T04:16:39.628Z,67.10
2023-05-15T04:19:45.938Z,67.00
2023-05-15T04:22:49.398Z,67.00
2023-05-15T04:25:53.779Z,66.80
2023-05-15T04:29:03.962Z,66.60
2023-05-15T04:32:07.993Z,66.40
2023-05-15T04:35:14.098Z,66.30
2023-05-15T04:38:16.990Z,66.10
2023-05-15T04:41:20.082Z,65.70
2023-05-15T04:44:23.123Z,65.10
2023-05-15T04:47:26.333Z,64.80
2023-05-15T04:50:30.820Z,64.70
2023-05-15T04:53:33.727Z,64.70
2023-05-15T04:56:37.012Z,64.50
2023-05-15T04:59:40.410Z,64.50
2023-05-15T05:02:44.150Z,64.30
2023-05-15T05:05:50.842Z,64.20
2023-05-15T05:08:53.781Z,63.90
2023-05-15T05:11:56.813Z,63.30
2023-05-15T05:14:59.743Z,62.60
2023-05-15T05:18:02.806Z,62.50
2023-05-15T05:21:07.530Z,60.70
2023-05-15T05:24:11.668Z,60.00
2023-05-15T05:27:14.684Z,59.30
2023-05-15T05:30:17.860Z,59.20
2023-05-15T05:33:20.892Z,58.40
2023-05-15T05:36:25.418Z,57.50
2023-05-15T05:39:28.380Z,56.90
2023-05-15T05:42:31.428Z,56.00
2023-05-15T05:45:34.453Z,55.10
2023-05-15T05:48:37.434Z,54.20
2023-05-15T05:51:41.815Z,54.20
2023-05-15T05:54:46.382Z,54.50
2023-05-15T05:57:49.494Z,55.20
2023-05-15T06:00:52.536Z,55.30
2023-05-15T06:03:56.181Z,55.50
2023-05-15T06:07:00.867Z,56.10
2023-05-15T06:10:04.002Z,56.80
2023-05-15T06:13:06.961Z,57.20
2023-05-15T06:16:10.142Z,58.00
2023-05-15T06:19:13.399Z,58.70
2023-05-15T06:22:17.837Z,59.00
2023-05-15T06:25:21.000Z,59.10
2023-05-15T06:28:24.220Z,59.50
2023-05-15T06:31:27.322Z,59.20
2023-05-15T06:34:30.448Z,58.70
2023-05-15T06:37:34.882Z,58.00
2023-05-15T06:40:37.893Z,56.80
2023-05-15T06:43:40.870Z,56.90
2023-05-15T06:46:43.996Z,56.50
2023-05-15T06:49:47.221Z,56.30
2023-05-15T06:52:51.673Z,56.10
2023-05-15T06:55:54.604Z,56.50
2023-05-15T06:58:57.639Z,56.80
2023-05-15T07:02:00.713Z,56.50
2023-05-15T07:05:03.863Z,54.80
2023-05-15T07:08:08.451Z,54.90
2023-05-15T07:11:11.698Z,54.00
2023-05-15T07:14:15.359Z,53.60
2023-05-15T07:17:19.184Z,53.30
2023-05-15T07:20:28.208Z,52.50
2023-05-15T07:23:34.119Z,51.80
2023-05-15T07:26:46.610Z,51.30
2023-05-15T07:30:00.766Z,51.10
2023-05-15T07:33:03.797Z,51.40
2023-05-15T07:36:07.596Z,51.50
2023-05-15T07:39:12.077Z,51.30
2023-05-15T07:42:15.193Z,51.20
2023-05-15T07:45:18.441Z,51.00
2023-05-15T07:48:21.743Z,50.70
2023-05-15T07:51:24.749Z,50.70
2023-05-15T07:54:32.295Z,50.70
2023-05-15T07:57:35.326Z,50.80
2023-05-15T08:00:38.686Z,50.40
2023-05-15T08:03:41.770Z,50.70
2023-05-15T08:06:45.423Z,51.50
2023-05-15T08:09:49.733Z,51.50
2023-05-15T08:12:52.743Z,50.90
2023-05-15T08:15:56.112Z,50.30
2023-05-15T08:19:01.680Z,50.10
2023-05-15T08:22:04.915Z,49.80
2023-05-15T08:25:10.401Z,50.40
2023-05-15T08:28:13.469Z,49.80
2023-05-15T08:31:16.565Z,48.30
2023-05-15T08:34:19.639Z,49.30
2023-05-15T08:37:22.612Z,49.20
2023-05-15T08:40:38.500Z,48.60
2023-05-15T08:43:43.983Z,48.90
2023-05-15T08:46:48.684Z,49.50
2023-05-15T08:50:01.353Z,49.70
2023-05-15T08:53:05.785Z,49.60
2023-05-15T08:56:10.208Z,49.50
2023-05-15T08:59:13.661Z,50.10
2023-05-15T09:02:18.275Z,50.10
2023-05-15T09:05:21.539Z,50.00
2023-05-15T09:08:26.152Z,50.40
2023-05-15T09:11:32.885Z,50.50
2023-05-15T09:14:36.182Z,50.90
2023-05-15T09:17:39.795Z,50.50
2023-05-15T09:20:43.163Z,50.40
2023-05-15T09:23:46.594Z,50.90
2023-05-15T09:27:06.969Z,50.60
2023-05-15T09:30:11.513Z,50.70
2023-05-15T09:33:14.477Z,51.10
2023-05-15T09:36:23.320Z,51.10
2023-05-15T09:39:26.514Z,51.40
2023-05-15T09:42:36.031Z,51.60
2023-05-15T09:45:39.221Z,50.70
2023-05-15T09:48:42.403Z,50.60
2023-05-15T09:51:46.549Z,50.30
2023-05-15T09:54:51.442Z,50.00
2023-05-15T09:58:10.981Z,49.40
2023-05-15T10:01:14.133Z,50.10
2023-05-15T10:04:17.556Z,49.50
2023-05-15T10:07:29.342Z,49.80
2023-05-15T10:10:32.988Z,50.00
2023-05-15T10:13:37.904Z,49.90
2023-05-15T10:16:42.284Z,50.30
2023-05-15T10:19:57.257Z,50.00
2023-05-15T10:23:05.229Z,50.10
2023-05-15T10:26:20.371Z,50.10
2023-05-15T10:29:26.998Z,50.50
2023-05-15T10:32:30.820Z,50.00
2023-05-15T10:35:36.212Z,50.30
2023-05-15T10:38:40.335Z,51.00
2023-05-15T10:41:46.334Z,51.50
2023-05-15T10:44:51.880Z,50.80
2023-05-15T10:47:55.433Z,51.50
2023-05-15T10:51:01.385Z,51.90
2023-05-15T10:54:04.810Z,52.50
2023-05-15T10:57:07.815Z,52.40
2023-05-15T11:03:49.686Z,52.20
2023-05-15T11:07:13.199Z,52.60
2023-05-15T11:10:37.842Z,53.30
2023-05-15T11:14:14.068Z,54.00
2023-05-15T11:17:17.663Z,54.00
2023-05-15T11:20:34.480Z,53.30
2023-05-15T11:23:42.223Z,52.50
2023-05-15T11:26:45.252Z,52.30
2023-05-15T11:30:12.290Z,50.70
2023-05-15T11:33:16.545Z,48.90
2023-05-15T11:36:25.461Z,47.40
2023-05-15T11:39:29.303Z,47.20
2023-05-15T11:42:33.410Z,46.60
2023-05-15T11:45:38.134Z,46.50
2023-05-15T11:48:43.015Z,46.80
2023-05-15T11:51:49.648Z,47.00
2023-05-15T11:54:52.683Z,47.50
2023-05-15T11:57:55.665Z,47.20
2023-05-15T12:00:59.339Z,47.20
2023-05-15T12:04:02.849Z,47.60
2023-05-15T12:07:08.866Z,47.50
2023-05-15T12:10:13.056Z,47.30
2023-05-15T12:13:18.525Z,47.50
2023-05-15T12:16:26.059Z,46.50
2023-05-15T12:19:29.255Z,45.60
2023-05-15T12:22:38.664Z,45.70
2023-05-15T12:25:41.833Z,45.70
2023-05-15T12:28:45.437Z,46.40
2023-05-15T12:31:53.841Z,45.90
2023-05-15T12:34:58.138Z,45.80
2023-05-15T12:38:04.313Z,45.50
2023-05-15T12:41:07.451Z,44.80
2023-05-15T12:44:17.620Z,44.40
2023-05-15T12:47:24.932Z,44.90
2023-05-15T12:50:30.564Z,44.80
2023-05-15T12:53:35.590Z,44.60
2023-05-15T12:56:38.562Z,44.90
2023-05-15T12:59:44.008Z,44.60
2023-05-15T13:02:47.314Z,44.60
2023-05-15T13:05:51.503Z,44.50
2023-05-15T13:08:56.430Z,45.00
2023-05-15T13:11:59.513Z,43.50
2023-05-15T13:15:02.569Z,43.20
2023-05-15T13:18:08.228Z,43.90
2023-05-15T13:21:11.831Z,44.00
2023-05-15T13:24:16.280Z,44.00
2023-05-15T13:27:19.304Z,44.70
2023-05-15T13:30:22.334Z,44.00
2023-05-15T13:33:27.735Z,43.20
2023-05-15T13:36:31.072Z,42.50
2023-05-15T13:39:35.329Z,44.00
2023-05-15T13:42:40.626Z,45.00
2023-05-15T13:45:43.678Z,45.90
2023-05-15T13:48:46.791Z,46.70
2023-05-15T13:51:49.772Z,47.60
2023-05-15T13:54:54.905Z,48.60
2023-05-15T13:57:58.247Z,49.80
2023-05-15T14:01:01.272Z,50.80
2023-05-15T14:04:04.465Z,52.00
2023-05-15T14:07:07.521Z,52.60
2023-05-15T14:10:13.725Z,53.20
2023-05-15T14:13:16.787Z,53.90
2023-05-15T14:16:20.091Z,54.50
2023-05-15T14:19:23.151Z,55.70
2023-05-15T14:22:26.359Z,56.30
2023-05-15T14:25:30.798Z,57.20
2023-05-15T14:28:33.976Z,57.30
2023-05-15T14:31:37.044Z,58.40
2023-05-15T14:34:40.164Z,58.20
2023-05-15T14:37:45.114Z,58.40
2023-05-15T14:40:56.757Z,58.70
2023-05-15T14:43:59.725Z,59.10
2023-05-15T14:47:10.045Z,59.30
2023-05-15T14:50:13.004Z,58.80
2023-05-15T14:53:16.059Z,58.40
2023-05-15T14:56:22.826Z,57.30
2023-05-15T14:59:25.869Z,56.40
2023-05-15T15:02:28.977Z,56.50
2023-05-15T15:05:32.210Z,56.30
2023-05-15T15:08:35.653Z,55.70
2023-05-15T15:15:15.594Z,54.90
2023-05-15T15:18:20.580Z,55.50
2023-05-15T15:21:23.664Z,54.30
2023-05-15T15:24:26.674Z,54.10
2023-05-15T15:27:33.330Z,53.90
2023-05-15T15:30:37.418Z,54.50
2023-05-15T15:33:40.587Z,54.70
2023-05-15T15:36:43.680Z,54.90
2023-05-15T15:39:47.016Z,54.90
2023-05-15T15:42:51.353Z,54.80
2023-05-15T15:45:55.288Z,55.00
2023-05-15T15:48:58.267Z,54.60
2023-05-15T15:52:01.877Z,53.60
2023-05-15T15:55:05.410Z,54.10
2023-05-15T15:58:09.915Z,53.90
2023-05-15T16:01:13.268Z,54.10
2023-05-15T16:04:16.515Z,54.10
2023-05-15T16:07:19.712Z,54.60
2023-05-15T16:10:22.753Z,54.30
2023-05-15T16:13:27.201Z,53.90
2023-05-15T16:16:30.307Z,54.00
2023-05-15T16:19:33.335Z,54.20
2023-05-15T16:22:36.627Z,54.40
2023-05-15T16:25:39.685Z,54.70
2023-05-15T16:28:44.383Z,55.20
2023-05-15T16:31:47.822Z,55.40
2023-05-15T16:34:50.997Z,55.50
2023-05-15T16:37:54.032Z,55.30
2023-05-15T16:40:57.077Z,55.50
2023-05-15T16:44:01.514Z,55.50
2023-05-15T16:47:04.703Z,55.80
2023-05-15T16:50:08.722Z,56.00
2023-05-15T16:53:12.282Z,55.80
2023-05-15T16:56:15.428Z,55.50
2023-05-15T16:59:19.808Z,55.40
2023-05-15T17:02:22.914Z,55.50
2023-05-15T17:05:25.922Z,55.20
2023-05-15T17:08:28.898Z,55.30
2023-05-15T17:11:31.854Z,55.40
2023-05-15T17:14:36.345Z,55.50
2023-05-15T17:17:39.471Z,55.90
2023-05-15T17:20:42.461Z,56.10
2023-05-15T17:23:45.418Z,56.10
2023-05-15T17:26:48.383Z,56.30
2023-05-15T17:29:52.840Z,56.70
2023-05-15T17:32:56.632Z,56.60
2023-05-15T17:35:59.783Z,56.80
2023-05-15T17:39:03.042Z,56.90
2023-05-15T17:42:06.583Z,56.90
2023-05-15T17:45:12.380Z,56.70
2023-05-15T17:48:15.452Z,57.20
2023-05-15T17:51:18.425Z,57.30
2023-05-15T17:54:21.842Z,57.20
2023-05-15T17:57:25.091Z,57.50
2023-05-15T18:00:30.966Z,57.60
2023-05-15T18:03:34.805Z,57.60
2023-05-15T18:06:38.005Z,57.90
2023-05-15T18:09:41.156Z,58.10
2023-05-15T18:12:44.128Z,58.40
2023-05-15T18:15:48.919Z,58.40
2023-05-15T18:18:52.253Z,58.70
2023-05-15T18:21:55.408Z,59.00
2023-05-15T18:24:58.667Z,59.20
2023-05-15T18:28:01.784Z,59.10
2023-05-15T18:31:07.938Z,59.50
2023-05-15T18:34:11.270Z,59.80
2023-05-15T18:37:14.877Z,60.00
2023-05-15T18:40:18.097Z,60.00
2023-05-15T18:43:21.460Z,59.70
2023-05-15T18:46:28.235Z,59.70
2023-05-15T18:49:31.820Z,59.60
2023-05-15T18:52:34.871Z,59.60
2023-05-15T18:55:38.955Z,59.70
2023-05-15T18:58:42.014Z,59.70
2023-05-15T19:01:46.550Z,59.70
2023-05-15T19:04:49.919Z,59.70
2023-05-15T19:07:53.163Z,59.70
2023-05-15T19:10:56.182Z,59.70
2023-05-15T19:13:59.189Z,59.50
2023-05-15T19:17:03.953Z,59.50
2023-05-15T19:20:08.564Z,59.80
2023-05-15T19:23:12.851Z,59.80
2023-05-15T19:26:15.851Z,60.50
2023-05-15T19:29:18.905Z,60.90
2023-05-15T19:32:23.386Z,61.10
2023-05-15T19:35:26.533Z,61.50
2023-05-15T19:38:29.869Z,62.00
2023-05-15T19:41:32.891Z,62.20
2023-05-15T19:44:36.042Z,62.60
2023-05-15T19:47:42.572Z,63.00
2023-05-15T19:50:46.493Z,63.30
2023-05-15T19:53:49.681Z,63.70
2023-05-15T19:56:52.780Z,64.10
2023-05-15T19:59:56.164Z,64.40
2023-05-15T20:03:03.271Z,64.50
2023-05-15T20:06:08.166Z,64.70
2023-05-15T20:09:11.227Z,65.00
2023-05-15T20:12:14.369Z,65.20
2023-05-15T20:15:17.548Z,65.20
2023-05-15T20:18:22.461Z,65.40
2023-05-15T20:21:25.637Z,65.20
2023-05-15T20:24:28.882Z,65.60
2023-05-15T20:27:32.247Z,65.80
2023-05-15T20:30:35.665Z,65.80
2023-05-15T20:33:42.774Z,66.00
2023-05-15T20:36:46.149Z,65.90
2023-05-15T20:39:49.357Z,66.20
2023-05-15T20:42:52.780Z,66.10
2023-05-15T20:45:56.373Z,66.10
2023-05-15T20:49:01.032Z,66.10
2023-05-15T20:52:04.111Z,66.40
2023-05-15T20:55:16.153Z,66.40
2023-05-15T20:58:19.228Z,66.10
2023-05-15T21:01:22.350Z,66.00
2023-05-15T21:04:26.897Z,65.90
2023-05-15T21:07:30.095Z,65.90
2023-05-15T21:10:33.473Z,66.00
2023-05-15T21:13:36.549Z,66.10
2023-05-15T21:16:39.693Z,66.30
2023-05-15T21:19:44.453Z,66.30
2023-05-15T21:22:47.598Z,66.50
2023-05-15T21:25:50.671Z,66.50
2023-05-15T21:28:53.948Z,66.70
2023-05-15T21:31:57.382Z,66.70
2023-05-15T21:35:01.929Z,67.00
2023-05-15T21:38:05.096Z,67.00
2023-05-15T21:41:08.286Z,66.90
2023-05-15T21:44:11.492Z,66.70
2023-05-15T21:47:14.594Z,66.80
2023-05-15T21:50:19.413Z,66.70
2023-05-15T21:53:22.833Z,66.60
2023-05-15T21:56:25.968Z,66.50
2023-05-15T21:59:29.221Z,66.70
2023-05-15T22:02:32.487Z,66.70
2023-05-15T22:05:37.039Z,66.90
2023-05-15T22:08:40.244Z,66.90
2023-05-15T22:11:43.834Z,67.20
2023-05-15T22:14:57.832Z,67.20
2023-05-15T22:18:01.850Z,67.30
2023-05-15T22:21:06.418Z,67.30
2023-05-15T22:24:10.084Z,67.50
2023-05-15T22:27:16.574Z,67.50
2023-05-15T22:30:19.950Z,67.60
2023-05-15T22:33:24.551Z,67.60
2023-05-15T22:36:30.876Z,67.80
2023-05-15T22:39:34.412Z,68.00
2023-05-15T22:42:37.628Z,67.80
2023-05-15T22:45:40.773Z,68.10
2023-05-15T22:48:44.081Z,68.10
2023-05-15T22:51:48.594Z,68.20
2023-05-15T22:54:51.721Z,68.60
2023-05-15T22:57:55.168Z,68.70
2023-05-15T23:00:58.350Z,68.70
2023-05-15T23:04:01.929Z,68.80
2023-05-15T23:07:06.935Z,68.90
2023-05-15T23:10:11.070Z,69.10
2023-05-15T23:13:14.345Z,69.60
2023-05-15T23:16:26.921Z,69.60
2023-05-15T23:19:30.500Z,69.80
2023-05-15T23:22:35.054Z,70.10
2023-05-15T23:25:39.088Z,70.20
2023-05-15T23:28:42.411Z,70.30
2023-05-15T23:31:45.967Z,70.50
2023-05-15T23:34:49.337Z,70.50
2023-05-15T23:37:53.924Z,70.60
2023-05-15T23:40:57.066Z,70.70
2023-05-15T23:44:00.148Z,70.60
2023-05-15T23:47:03.353Z,70.60
2023-05-15T23:50:08.064Z,70.70
2023-05-15T23:53:12.599Z,70.80
2023-05-15T23:56:15.875Z,70.70
2023-05-15T23:59:22.063Z,70.40
